Time;durP1;ratioP1;P1;durP2;ratioP2;P2;SDS_P1;SDS_P2;PMS_P1;PMS_P2;Temp;Humidity;BMP_temperature;BMP_pressure;BME280_temperature;BME280_humidity;BME280_pressure;Samples;Min_cycle;Max_cycle;Signal;HPM_P1;HPM_P2
2021/05/16 00:00:36;;;;;;;5.23;3.80;;;9.00;99.90;;;;;;5100883;28;20621;-77
2021/05/16 00:03:02;;;;;;;6.87;3.83;;;9.00;99.90;;;;;;5107713;28;20196;-76
2021/05/16 00:05:30;;;;;;;5.63;3.80;;;9.00;99.90;;;;;;5107470;28;20180;-77
2021/05/16 00:07:57;;;;;;;9.63;4.90;;;8.90;99.90;;;;;;5107892;28;20857;-77
2021/05/16 00:10:24;;;;;;;4.10;3.60;;;8.90;99.90;;;;;;5096601;28;20416;-77
2021/05/16 00:12:50;;;;;;;4.90;3.60;;;8.90;99.90;;;;;;5107562;28;20452;-77
2021/05/16 00:15:18;;;;;;;4.27;3.87;;;8.90;99.90;;;;;;5107942;28;20433;-76
2021/05/16 00:17:44;;;;;;;4.73;3.80;;;8.90;99.90;;;;;;5107509;28;20472;-76
2021/05/16 00:20:16;;;;;;;7.00;4.80;;;8.90;99.90;;;;;;5107004;28;20429;-77
2021/05/16 00:22:42;;;;;;;8.60;3.87;;;8.90;99.90;;;;;;5107944;28;20493;-77
2021/05/16 00:25:11;;;;;;;7.40;3.30;;;8.90;99.90;;;;;;5107484;28;20442;-78
2021/05/16 00:27:37;;;;;;;5.20;3.67;;;8.90;99.90;;;;;;5107496;28;20501;-77
2021/05/16 00:30:06;;;;;;;4.40;3.30;;;8.90;99.90;;;;;;5101214;28;20423;-77
2021/05/16 00:32:31;;;;;;;9.20;3.57;;;8.90;99.90;;;;;;5107303;28;20921;-77
2021/05/16 00:34:57;;;;;;;5.10;3.67;;;8.90;99.90;;;;;;5107476;28;20443;-77
2021/05/16 00:37:23;;;;;;;5.10;2.90;;;8.90;99.90;;;;;;5107129;28;20231;-77
2021/05/16 00:39:49;;;;;;;4.70;3.70;;;8.90;99.90;;;;;;5107090;28;20191;-77
2021/05/16 00:42:14;;;;;;;3.80;3.40;;;8.90;99.90;;;;;;5107010;28;20430;-77
2021/05/16 00:45:02;;;;;;;5.67;3.57;;;8.90;99.90;;;;;;5107546;28;20179;-77
2021/05/16 00:47:28;;;;;;;3.80;3.50;;;8.80;99.90;;;;;;5099418;28;20196;-77
2021/05/16 00:49:54;;;;;;;4.13;3.67;;;8.80;99.90;;;;;;5106941;28;20489;-77
2021/05/16 00:52:22;;;;;;;8.50;3.70;;;8.80;99.90;;;;;;5107241;28;20445;-77
2021/05/16 00:54:47;;;;;;;5.03;3.50;;;8.70;99.90;;;;;;5107641;28;20449;-76
2021/05/16 00:57:13;;;;;;;5.07;3.40;;;8.70;99.90;;;;;;5107093;28;20532;-77
2021/05/16 00:59:39;;;;;;;5.40;3.60;;;8.70;99.90;;;;;;5097171;28;20561;-76
2021/05/16 01:02:04;;;;;;;4.70;3.27;;;8.60;99.90;;;;;;5107000;28;20200;-77
2021/05/16 01:04:30;;;;;;;4.17;3.57;;;8.70;99.90;;;;;;5107132;28;20180;-77
2021/05/16 01:06:55;;;;;;;7.10;3.20;;;8.60;99.90;;;;;;5107434;28;20262;-77
2021/05/16 01:09:24;;;;;;;4.83;3.17;;;8.60;99.90;;;;;;5106778;28;20188;-76
2021/05/16 01:11:51;;;;;;;7.13;3.50;;;8.60;99.90;;;;;;5107327;28;20567;-77
2021/05/16 01:14:30;;;;;;;3.07;2.87;;;8.60;99.90;;;;;;5106682;28;20438;-77
2021/05/16 01:16:56;;;;;;;5.03;3.20;;;8.60;99.90;;;;;;5096852;28;20462;-76
2021/05/16 01:19:22;;;;;;;5.97;4.30;;;8.60;99.90;;;;;;5106739;28;20418;-74
2021/05/16 01:21:48;;;;;;;7.03;3.97;;;8.60;99.90;;;;;;5109438;28;20438;-77
2021/05/16 01:24:18;;;;;;;5.00;3.70;;;8.60;99.90;;;;;;5110723;28;20176;-77
2021/05/16 01:26:45;;;;;;;5.00;3.33;;;8.60;99.90;;;;;;5111424;28;20185;-77
2021/05/16 01:29:12;;;;;;;4.53;4.13;;;8.60;99.90;;;;;;5110828;28;20411;-78
2021/05/16 01:31:39;;;;;;;6.17;3.53;;;8.70;99.90;;;;;;5110637;28;20442;-76
2021/05/16 01:34:06;;;;;;;7.37;3.73;;;8.70;99.90;;;;;;5110707;28;20426;-76
2021/05/16 01:36:35;;;;;;;5.40;3.37;;;8.70;99.90;;;;;;5111007;28;20462;-78
2021/05/16 01:39:03;;;;;;;6.23;3.67;;;8.80;99.90;;;;;;5110423;28;20414;-77
2021/05/16 01:41:29;;;;;;;9.00;3.50;;;8.80;99.90;;;;;;5110130;28;20434;-77
2021/05/16 01:43:55;;;;;;;4.33;3.47;;;8.80;99.90;;;;;;5110681;28;20406;-78
2021/05/16 01:46:21;;;;;;;6.27;3.93;;;8.80;99.90;;;;;;5110551;28;20173;-78
2021/05/16 01:48:47;;;;;;;4.50;2.80;;;8.80;99.90;;;;;;5110315;28;20422;-77
2021/05/16 01:51:12;;;;;;;4.10;3.10;;;8.90;99.90;;;;;;5110105;28;20207;-77
2021/05/16 01:53:40;;;;;;;5.20;3.03;;;8.90;99.90;;;;;;5110740;28;20188;-77
2021/05/16 01:56:07;;;;;;;3.30;3.00;;;8.90;99.90;;;;;;5110240;28;20212;-76
2021/05/16 01:58:36;;;;;;;3.97;3.00;;;8.90;99.90;;;;;;5100216;28;20497;-77
2021/05/16 02:01:04;;;;;;;4.83;3.43;;;8.90;99.90;;;;;;5110316;28;20434;-78
2021/05/16 02:03:31;;;;;;;4.93;3.67;;;9.00;99.90;;;;;;5100436;28;20468;-77
2021/05/16 02:05:57;;;;;;;5.57;3.10;;;9.00;99.90;;;;;;5110669;28;20429;-79
2021/05/16 02:08:23;;;;;;;3.93;3.00;;;9.00;99.90;;;;;;5110014;28;20864;-77
2021/05/16 02:10:49;;;;;;;4.23;2.97;;;9.00;99.90;;;;;;5098594;28;20450;-78
2021/05/16 02:13:15;;;;;;;5.43;3.97;;;9.10;99.90;;;;;;5104672;28;20442;-78
2021/05/16 02:15:40;;;;;;;4.37;3.50;;;9.10;99.90;;;;;;5109972;28;20655;-78
2021/05/16 02:18:08;;;;;;;5.60;3.10;;;9.10;99.90;;;;;;5110047;28;20233;-77
2021/05/16 02:20:34;;;;;;;4.13;3.23;;;9.10;99.90;;;;;;5110856;28;20192;-77
2021/05/16 02:23:00;;;;;;;4.47;2.90;;;9.10;99.90;;;;;;5111242;28;20782;-77
2021/05/16 02:25:26;;;;;;;6.93;3.50;;;9.10;99.90;;;;;;5101171;28;20425;-77
2021/05/16 02:27:52;;;;;;;6.60;3.10;;;9.10;99.90;;;;;;5101634;28;20215;-77
2021/05/16 02:30:18;;;;;;;3.40;2.60;;;9.10;99.90;;;;;;5110236;28;20933;-77
2021/05/16 02:32:44;;;;;;;5.30;3.17;;;9.10;99.90;;;;;;5108764;28;20196;-77
2021/05/16 02:35:12;;;;;;;3.67;2.73;;;9.10;99.90;;;;;;5109631;28;20433;-76
2021/05/16 02:37:38;;;;;;;4.87;3.10;;;9.10;99.90;;;;;;5093988;28;20458;-77
2021/05/16 02:40:05;;;;;;;3.40;2.93;;;9.20;99.90;;;;;;5109182;28;20411;-77
2021/05/16 02:42:31;;;;;;;4.07;2.70;;;9.10;99.90;;;;;;5109837;28;20410;-77
2021/05/16 02:44:56;;;;;;;6.33;2.90;;;9.20;99.90;;;;;;5109579;28;20777;-77
2021/05/16 02:47:22;;;;;;;7.17;3.40;;;9.20;99.90;;;;;;5109293;28;20612;-77
2021/05/16 02:49:48;;;;;;;3.20;2.90;;;9.20;99.90;;;;;;5109129;28;20181;-78
2021/05/16 02:52:14;;;;;;;5.93;3.60;;;9.10;99.90;;;;;;5099116;28;20228;-79
2021/05/16 02:54:40;;;;;;;3.17;2.87;;;9.20;99.90;;;;;;5109531;28;20241;-77
2021/05/16 02:57:06;;;;;;;4.33;3.43;;;9.30;99.90;;;;;;5108817;28;20462;-77
2021/05/16 02:59:31;;;;;;;3.90;3.60;;;9.20;99.90;;;;;;5108874;28;20195;-76
2021/05/16 03:01:57;;;;;;;5.20;3.60;;;9.20;99.90;;;;;;5108983;28;20199;-78
2021/05/16 03:04:22;;;;;;;3.70;3.10;;;9.30;99.90;;;;;;5109099;28;20184;-77
2021/05/16 03:06:49;;;;;;;5.70;3.27;;;9.20;99.90;;;;;;5108752;28;20589;-78
2021/05/16 03:09:14;;;;;;;6.80;2.87;;;9.20;99.90;;;;;;5108943;28;20216;-78
2021/05/16 03:11:40;;;;;;;3.67;3.13;;;9.20;99.90;;;;;;5108677;28;20472;-78
2021/05/16 03:14:07;;;;;;;8.63;3.40;;;9.10;99.90;;;;;;5108801;28;20200;-76
2021/05/16 03:16:33;;;;;;;4.63;2.77;;;9.10;99.90;;;;;;5108772;28;20201;-78
2021/05/16 03:18:59;;;;;;;5.73;3.20;;;9.20;99.90;;;;;;5108813;28;20421;-78
2021/05/16 03:21:25;;;;;;;4.40;2.97;;;9.10;99.90;;;;;;5108336;28;20494;-77
2021/05/16 03:23:50;;;;;;;4.80;2.53;;;9.00;99.90;;;;;;5108829;28;20184;-77
2021/05/16 03:26:16;;;;;;;4.03;3.13;;;9.10;99.90;;;;;;5108850;28;20516;-77
2021/05/16 03:28:41;;;;;;;3.03;2.73;;;9.10;99.90;;;;;;5098856;28;20733;-77
2021/05/16 03:31:07;;;;;;;2.73;2.53;;;9.10;99.90;;;;;;5099074;28;20196;-77
2021/05/16 03:33:32;;;;;;;3.90;2.83;;;9.10;99.90;;;;;;5108541;28;20664;-77
2021/05/16 03:35:58;;;;;;;2.53;2.33;;;9.20;99.90;;;;;;5101522;28;20208;-78
2021/05/16 03:38:24;;;;;;;4.57;2.57;;;9.20;99.90;;;;;;5107713;28;20679;-78
2021/05/16 03:40:49;;;;;;;3.20;2.30;;;9.20;99.90;;;;;;5098324;28;20216;-77
2021/05/16 03:43:15;;;;;;;3.13;2.53;;;9.20;99.90;;;;;;5108446;28;20263;-78
2021/05/16 03:45:41;;;;;;;3.30;2.20;;;9.20;99.90;;;;;;5108002;28;20262;-78
2021/05/16 03:48:06;;;;;;;2.70;2.10;;;9.30;99.90;;;;;;5101242;28;20233;-77
2021/05/16 03:50:32;;;;;;;4.87;2.30;;;9.30;99.90;;;;;;5107852;28;20554;-77
2021/05/16 03:52:58;;;;;;;4.80;3.00;;;9.40;99.90;;;;;;5107921;28;20187;-77
2021/05/16 03:55:23;;;;;;;4.07;2.60;;;9.40;99.90;;;;;;5107961;28;20180;-78
2021/05/16 03:57:50;;;;;;;5.03;3.47;;;9.40;99.90;;;;;;5107869;28;20203;-76
2021/05/16 04:00:16;;;;;;;3.60;3.00;;;9.40;99.90;;;;;;5107312;28;20246;-78
2021/05/16 04:02:42;;;;;;;3.60;3.20;;;9.40;99.90;;;;;;5098611;28;20430;-78
2021/05/16 04:05:08;;;;;;;2.93;2.70;;;9.40;99.90;;;;;;5107998;28;20418;-79
2021/05/16 04:07:33;;;;;;;3.43;2.57;;;9.40;99.90;;;;;;5108004;28;20184;-79
2021/05/16 04:09:59;;;;;;;4.23;3.40;;;9.50;99.90;;;;;;5107515;28;20201;-77
2021/05/16 04:12:25;;;;;;;4.27;3.63;;;9.50;99.90;;;;;;5107753;28;20245;-77
2021/05/16 04:14:51;;;;;;;5.33;3.80;;;9.40;99.90;;;;;;5107500;28;20564;-78
2021/05/16 04:17:17;;;;;;;4.30;3.90;;;9.40;99.90;;;;;;5107771;28;20257;-77
2021/05/16 04:19:43;;;;;;;6.17;4.50;;;9.50;99.90;;;;;;5107243;28;20419;-78
2021/05/16 04:22:09;;;;;;;4.63;3.70;;;9.50;99.90;;;;;;5097569;28;20438;-77
2021/05/16 04:24:34;;;;;;;4.63;4.17;;;9.50;99.90;;;;;;5107525;28;20187;-76
2021/05/16 04:27:00;;;;;;;4.27;3.87;;;9.50;99.90;;;;;;5107611;28;20191;-76
2021/05/16 04:29:25;;;;;;;5.30;4.80;;;9.50;99.90;;;;;;5107299;28;20237;-77
2021/05/16 04:31:51;;;;;;;4.93;4.40;;;9.50;99.90;;;;;;5107396;28;20215;-77
2021/05/16 04:34:16;;;;;;;4.37;3.93;;;9.50;99.90;;;;;;5097606;28;20197;-77
2021/05/16 04:36:42;;;;;;;4.70;4.30;;;9.50;99.90;;;;;;5095562;28;20265;-77
2021/05/16 04:39:08;;;;;;;6.70;4.33;;;9.50;99.90;;;;;;5102148;28;20177;-78
2021/05/16 04:41:34;;;;;;;6.33;4.73;;;9.50;99.90;;;;;;5106857;28;20192;-78
2021/05/16 04:44:00;;;;;;;5.70;4.30;;;9.60;99.90;;;;;;5106968;28;20428;-75
2021/05/16 04:46:26;;;;;;;5.50;4.50;;;9.60;99.90;;;;;;5107611;28;20229;-78
2021/05/16 04:48:52;;;;;;;13.97;6.60;;;9.60;99.90;;;;;;5107145;28;20428;-77
2021/05/16 04:51:18;;;;;;;8.73;5.90;;;9.60;99.90;;;;;;5102409;28;20450;-79
2021/05/16 04:53:43;;;;;;;8.47;6.23;;;9.60;99.90;;;;;;5097319;28;20541;-78
2021/05/16 04:56:09;;;;;;;9.63;7.40;;;9.60;99.90;;;;;;5108780;28;20690;-76
2021/05/16 04:58:35;;;;;;;9.80;7.80;;;9.70;99.90;;;;;;5101422;28;20210;-77
2021/05/16 05:01:01;;;;;;;10.50;7.63;;;9.60;99.90;;;;;;5111024;28;20200;-77
2021/05/16 05:03:26;;;;;;;8.80;7.90;;;9.60;99.90;;;;;;5111543;28;20172;-77
2021/05/16 05:05:53;;;;;;;13.07;9.90;;;9.60;99.90;;;;;;5111324;28;20422;-76
2021/05/16 05:08:20;;;;;;;11.37;9.37;;;9.60;99.90;;;;;;5111030;28;20180;-78
2021/05/16 05:10:46;;;;;;;9.83;8.47;;;9.70;99.90;;;;;;5110711;28;20461;-76
2021/05/16 05:13:11;;;;;;;11.20;9.10;;;9.70;99.90;;;;;;5106614;28;20470;-78
2021/05/16 05:15:37;;;;;;;10.00;7.80;;;9.70;99.90;;;;;;5111142;28;20180;-77
2021/05/16 05:18:03;;;;;;;10.50;7.70;;;9.70;99.90;;;;;;5111083;28;20207;-78
2021/05/16 05:20:28;;;;;;;10.67;9.20;;;9.80;99.90;;;;;;5110742;28;20690;-77
2021/05/16 05:22:54;;;;;;;10.30;8.90;;;9.80;99.90;;;;;;5101085;28;20426;-77
2021/05/16 05:25:20;;;;;;;9.63;8.23;;;9.80;99.90;;;;;;5111012;27;20181;-78
2021/05/16 05:27:46;;;;;;;11.60;8.70;;;9.80;99.90;;;;;;5111241;28;20188;-77
2021/05/16 05:30:12;;;;;;;8.63;7.83;;;9.80;99.90;;;;;;5110696;28;20433;-77
2021/05/16 05:32:38;;;;;;;9.53;8.73;;;9.80;99.90;;;;;;5110936;28;20179;-77
2021/05/16 05:35:06;;;;;;;9.30;8.40;;;9.80;99.90;;;;;;5106101;28;20811;-78
2021/05/16 05:37:31;;;;;;;9.33;7.97;;;9.80;99.90;;;;;;5110526;28;20192;-78
2021/05/16 05:39:57;;;;;;;10.93;8.80;;;9.90;99.90;;;;;;5110211;28;20414;-77
2021/05/16 05:42:25;;;;;;;9.80;8.67;;;9.90;99.90;;;;;;5110737;28;20204;-77
2021/05/16 05:44:51;;;;;;;8.30;7.50;;;10.00;99.90;;;;;;5111650;28;20418;-77
2021/05/16 05:47:17;;;;;;;10.60;8.70;;;10.00;99.90;;;;;;5110497;28;20470;-79
2021/05/16 05:49:42;;;;;;;9.20;8.40;;;10.10;99.90;;;;;;5110354;28;20211;-77
2021/05/16 05:52:08;;;;;;;8.77;7.63;;;10.20;99.90;;;;;;5100189;28;20200;-79
2021/05/16 05:54:35;;;;;;;8.93;7.00;;;10.20;99.90;;;;;;5100900;28;20607;-77
2021/05/16 05:57:01;;;;;;;7.33;6.70;;;10.10;99.90;;;;;;5110140;28;20203;-77
2021/05/16 05:59:26;;;;;;;8.07;7.27;;;10.10;99.90;;;;;;5110348;28;20411;-76
2021/05/16 06:01:52;;;;;;;8.07;7.37;;;10.20;99.90;;;;;;5110211;28;20502;-77
2021/05/16 06:04:17;;;;;;;8.50;7.07;;;10.10;99.90;;;;;;5110341;28;20181;-78
2021/05/16 06:06:43;;;;;;;7.60;6.90;;;10.20;99.90;;;;;;5110140;28;20189;-78
2021/05/16 06:09:09;;;;;;;8.33;7.20;;;10.10;99.90;;;;;;5110485;28;20180;-78
2021/05/16 06:11:34;;;;;;;7.97;7.17;;;10.20;99.90;;;;;;5109745;28;20668;-77
2021/05/16 06:14:00;;;;;;;8.20;7.20;;;10.30;99.90;;;;;;5109896;28;20215;-76
2021/05/16 06:16:25;;;;;;;7.60;7.00;;;10.40;99.90;;;;;;5110089;28;20237;-77
2021/05/16 06:18:51;;;;;;;7.00;6.13;;;10.50;99.90;;;;;;5110023;28;20588;-77
2021/05/16 06:21:17;;;;;;;7.43;6.77;;;10.60;99.90;;;;;;5109393;28;20201;-77
2021/05/16 06:23:50;;;;;;;7.33;6.03;;;10.70;99.90;;;;;;5109945;28;20188;-78
2021/05/16 06:26:16;;;;;;;7.07;6.40;;;10.70;99.90;;;;;;5109920;28;20529;-78
2021/05/16 06:28:42;;;;;;;7.33;6.63;;;10.70;99.90;;;;;;5109919;28;20467;-77
2021/05/16 06:31:07;;;;;;;8.17;6.60;;;10.70;99.90;;;;;;5100125;28;20247;-78
2021/05/16 06:33:33;;;;;;;10.20;8.37;;;10.80;99.90;;;;;;5109906;28;20185;-78
2021/05/16 06:35:59;;;;;;;8.00;7.00;;;10.90;99.90;;;;;;5109223;28;20271;-77
2021/05/16 06:38:24;;;;;;;8.00;7.00;;;11.00;99.90;;;;;;5110033;28;20207;-77
2021/05/16 06:40:50;;;;;;;8.80;6.67;;;11.10;99.90;;;;;;5109296;28;20239;-79
2021/05/16 06:43:18;;;;;;;7.73;7.03;;;11.10;99.90;;;;;;5109578;28;20194;-78
2021/05/16 06:45:43;;;;;;;6.60;6.00;;;11.10;99.90;;;;;;5109583;28;20180;-78
2021/05/16 06:48:09;;;;;;;6.70;6.03;;;11.20;99.90;;;;;;5109828;28;20713;-77
2021/05/16 06:50:34;;;;;;;7.57;6.80;;;11.10;99.90;;;;;;5109062;28;20245;-78
2021/05/16 06:53:00;;;;;;;7.50;6.67;;;11.00;99.90;;;;;;5109648;28;20216;-77
2021/05/16 06:55:25;;;;;;;9.00;7.40;;;11.00;99.90;;;;;;5098310;28;20172;-77
2021/05/16 06:57:51;;;;;;;8.60;7.80;;;10.80;99.90;;;;;;5109159;28;20257;-78
2021/05/16 07:00:17;;;;;;;9.17;8.37;;;10.70;99.90;;;;;;5109230;28;20190;-79
2021/05/16 07:02:42;;;;;;;8.30;7.30;;;10.60;99.90;;;;;;5109257;28;20563;-77
2021/05/16 07:05:09;;;;;;;9.00;8.10;;;10.60;99.90;;;;;;5108903;28;20202;-77
2021/05/16 07:07:34;;;;;;;7.47;6.70;;;10.50;99.90;;;;;;5109092;28;20184;-77
2021/05/16 07:10:00;;;;;;;8.20;7.07;;;10.40;99.90;;;;;;5098979;28;20437;-77
2021/05/16 07:12:25;;;;;;;8.33;5.87;;;10.30;99.90;;;;;;5097747;28;20209;-78
2021/05/16 07:14:51;;;;;;;7.30;6.70;;;10.30;99.90;;;;;;5109206;28;20220;-77
2021/05/16 07:17:17;;;;;;;7.33;6.43;;;10.30;99.90;;;;;;5109220;28;20208;-78
2021/05/16 07:19:42;;;;;;;6.67;5.53;;;10.30;99.90;;;;;;5109120;28;20181;-78
2021/05/16 07:22:08;;;;;;;7.10;5.70;;;10.30;99.90;;;;;;5109670;28;20625;-77
2021/05/16 07:24:34;;;;;;;6.90;5.37;;;10.30;99.90;;;;;;5109417;28;20185;-77
2021/05/16 07:26:59;;;;;;;7.27;6.47;;;10.30;99.90;;;;;;5109101;28;20428;-77
2021/05/16 07:29:25;;;;;;;7.33;6.63;;;10.40;99.90;;;;;;5108307;28;20173;-77
2021/05/16 07:31:52;;;;;;;6.63;5.90;;;10.40;99.90;;;;;;5099110;28;20192;-79
2021/05/16 07:34:17;;;;;;;6.30;5.70;;;10.50;99.90;;;;;;5098754;28;20186;-78
2021/05/16 07:36:43;;;;;;;5.50;5.03;;;10.50;99.90;;;;;;5096483;28;20561;-76
2021/05/16 07:39:08;;;;;;;5.67;5.07;;;10.60;99.90;;;;;;5108417;28;20177;-77
2021/05/16 07:41:34;;;;;;;6.60;6.00;;;10.60;99.90;;;;;;5107393;28;20192;-76
2021/05/16 07:44:00;;;;;;;4.90;4.40;;;10.70;99.90;;;;;;5109684;28;20183;-77
2021/05/16 07:46:26;;;;;;;5.30;4.80;;;10.70;99.90;;;;;;5108253;28;20180;-77
2021/05/16 07:48:51;;;;;;;4.43;4.03;;;10.80;99.90;;;;;;5098613;28;20917;-77
2021/05/16 07:51:17;;;;;;;7.30;3.70;;;10.70;99.90;;;;;;5107761;28;20541;-77
2021/05/16 07:53:42;;;;;;;6.30;4.33;;;10.80;99.90;;;;;;5108153;28;20184;-78
2021/05/16 07:56:10;;;;;;;4.90;3.93;;;10.80;99.90;;;;;;5107757;28;20665;-78
2021/05/16 07:58:35;;;;;;;5.03;4.53;;;10.90;99.90;;;;;;5108168;28;20177;-77
2021/05/16 08:01:01;;;;;;;6.57;4.60;;;11.00;99.90;;;;;;5107830;28;20446;-78
2021/05/16 08:03:27;;;;;;;6.30;4.40;;;11.10;99.90;;;;;;5108115;28;20176;-78
2021/05/16 08:05:53;;;;;;;6.80;4.20;;;11.30;99.90;;;;;;5108327;28;20180;-78
2021/05/16 08:08:19;;;;;;;3.47;3.10;;;11.40;99.90;;;;;;5108231;28;20207;-78
2021/05/16 08:10:45;;;;;;;4.50;3.10;;;11.50;99.90;;;;;;5107948;28;20573;-78
2021/05/16 08:13:11;;;;;;;3.90;3.47;;;11.50;99.90;;;;;;5107508;28;20521;-77
2021/05/16 08:15:37;;;;;;;4.90;3.60;;;11.60;99.90;;;;;;5097888;28;20210;-78
2021/05/16 08:18:04;;;;;;;3.70;3.40;;;11.70;99.90;;;;;;5107761;28;20454;-77
2021/05/16 08:20:31;;;;;;;3.60;3.30;;;11.70;99.90;;;;;;5097348;28;20691;-77
2021/05/16 08:22:56;;;;;;;3.47;3.17;;;11.80;99.90;;;;;;5097732;28;20963;-77
2021/05/16 08:25:22;;;;;;;3.97;3.67;;;11.90;99.90;;;;;;5107888;28;20414;-78
2021/05/16 08:27:50;;;;;;;5.57;3.50;;;12.10;99.90;;;;;;5107804;28;20672;-78
2021/05/16 08:30:16;;;;;;;6.20;3.93;;;12.20;99.90;;;;;;5106578;28;20652;-78
2021/05/16 08:32:43;;;;;;;7.13;2.90;;;12.30;99.90;;;;;;5097393;28;20430;-77
2021/05/16 08:35:09;;;;;;;4.37;3.20;;;12.50;99.90;;;;;;5107929;28;20657;-78
2021/05/16 08:37:35;;;;;;;5.57;3.20;;;12.60;99.90;;;;;;5107761;28;20649;-77
2021/05/16 08:40:00;;;;;;;3.40;3.10;;;12.70;99.90;;;;;;5106895;28;20966;-77
2021/05/16 08:42:29;;;;;;;2.90;2.70;;;12.80;99.90;;;;;;5107212;28;20547;-78
2021/05/16 08:44:54;;;;;;;7.13;3.50;;;12.90;99.90;;;;;;5107637;28;20173;-78
2021/05/16 08:47:21;;;;;;;3.23;2.93;;;12.90;99.90;;;;;;5107657;28;20466;-78
2021/05/16 08:49:47;;;;;;;4.30;3.80;;;12.90;99.90;;;;;;5107076;28;20185;-78
2021/05/16 08:52:12;;;;;;;3.93;3.57;;;13.00;99.90;;;;;;5107576;28;20441;-77
2021/05/16 08:54:38;;;;;;;4.63;3.50;;;13.00;99.90;;;;;;5107552;28;20183;-76
2021/05/16 08:57:04;;;;;;;4.73;3.53;;;13.00;99.90;;;;;;5107368;28;20211;-77
2021/05/16 08:59:29;;;;;;;3.97;3.40;;;12.90;99.90;;;;;;5106993;28;20670;-77
2021/05/16 09:01:58;;;;;;;4.27;3.00;;;12.80;99.90;;;;;;5107270;28;20219;-77
2021/05/16 09:04:33;;;;;;;4.83;3.17;;;12.80;99.90;;;;;;5107058;28;20201;-76
2021/05/16 09:06:59;;;;;;;5.20;2.97;;;12.70;99.90;;;;;;5106908;28;20765;-75
2021/05/16 09:09:26;;;;;;;8.53;3.87;;;12.80;99.90;;;;;;5097034;28;20495;-77
2021/05/16 09:11:56;;;;;;;6.53;2.70;;;12.80;99.90;;;;;;5107251;28;20438;-75
2021/05/16 09:14:50;;;;;;;3.70;3.10;;;12.90;99.90;;;;;;5107494;28;20495;-79
2021/05/16 09:17:28;;;;;;;4.23;2.77;;;13.20;99.90;;;;;;5107153;28;21014;-78
2021/05/16 09:19:56;;;;;;;3.80;2.50;;;13.40;99.90;;;;;;5107750;28;20440;-78
2021/05/16 09:22:37;;;;;;;3.33;2.00;;;13.50;99.90;;;;;;5107389;28;20429;-78
2021/05/16 09:25:14;;;;;;;3.90;2.53;;;13.70;99.90;;;;;;5107180;28;20471;-78
2021/05/16 09:27:42;;;;;;;4.33;2.60;;;13.90;99.90;;;;;;5106610;28;20787;-76
2021/05/16 09:30:18;;;;;;;6.97;2.33;;;14.00;99.90;;;;;;5101699;28;20451;-73
2021/05/16 09:32:52;;;;;;;3.00;2.00;;;14.20;99.90;;;;;;5107460;28;20461;-76
2021/05/16 09:35:32;;;;;;;5.67;2.50;;;14.20;99.90;;;;;;5107963;28;20428;-76
2021/05/16 09:38:19;;;;;;;8.03;2.80;;;14.20;99.90;;;;;;5107994;28;20457;-75
2021/05/16 09:40:48;;;;;;;5.13;2.63;;;14.20;99.90;;;;;;5092790;28;20815;-78
2021/05/16 09:43:17;;;;;;;2.37;2.17;;;14.20;99.90;;;;;;5110706;28;20418;-76
2021/05/16 09:45:51;;;;;;;3.90;2.37;;;14.30;99.90;;;;;;5110879;28;20440;-75
2021/05/16 09:48:29;;;;;;;3.27;2.17;;;14.40;99.90;;;;;;5110665;28;20417;-77
2021/05/16 09:51:11;;;;;;;3.20;1.93;;;14.50;99.90;;;;;;5110064;28;20434;-76
2021/05/16 09:53:55;;;;;;;3.07;1.90;;;14.60;99.90;;;;;;5108607;28;20933;-76
2021/05/16 09:56:33;;;;;;;4.63;2.50;;;14.70;99.90;;;;;;5110231;28;20500;-76
2021/05/16 09:59:04;;;;;;;4.77;2.33;;;14.80;99.90;;;;;;5107117;28;20493;-75
2021/05/16 10:01:30;;;;;;;4.43;2.83;;;15.10;99.90;;;;;;5110105;28;20434;-75
2021/05/16 10:03:59;;;;;;;3.27;2.30;;;15.20;99.90;;;;;;5110601;28;20414;-77
2021/05/16 10:06:25;;;;;;;2.50;2.10;;;15.20;99.90;;;;;;5101908;28;20402;-76
2021/05/16 10:08:51;;;;;;;3.80;2.23;;;15.20;99.90;;;;;;5110039;28;20421;-77
2021/05/16 10:11:24;;;;;;;5.17;2.70;;;15.30;99.90;;;;;;5110606;28;20471;-77
2021/05/16 10:14:14;;;;;;;8.03;2.00;;;15.30;99.90;;;;;;5110230;28;20474;-77
2021/05/16 10:16:48;;;;;;;4.10;2.20;;;15.00;99.90;;;;;;5103918;28;20886;-76
2021/05/16 10:19:21;;;;;;;5.67;2.27;;;15.00;99.90;;;;;;5109682;28;21000;-77
2021/05/16 10:22:10;;;;;;;4.80;2.33;;;15.00;99.90;;;;;;5109683;28;20478;-76
2021/05/16 10:24:46;;;;;;;5.87;2.30;;;15.00;99.90;;;;;;5087367;28;20426;-76
2021/05/16 10:27:29;;;;;;;4.23;2.57;;;15.10;99.90;;;;;;5109933;28;20410;-76
2021/05/16 10:30:05;;;;;;;3.10;1.90;;;14.60;99.90;;;;;;5109352;28;20410;-77
2021/05/16 10:32:38;;;;;;;2.27;2.07;;;14.50;99.90;;;;;;5095975;28;20590;-79
2021/05/16 10:35:08;;;;;;;4.73;1.40;;;14.50;99.90;;;;;;5104887;28;20421;-78
2021/05/16 10:37:33;;;;;;;2.97;1.73;;;14.50;99.90;;;;;;5109545;28;20453;-77
2021/05/16 10:39:59;;;;;;;2.37;1.90;;;14.40;99.90;;;;;;5109206;28;20414;-77
2021/05/16 10:42:36;;;;;;;3.90;1.87;;;14.50;99.90;;;;;;5109502;28;20196;-79
2021/05/16 10:45:15;;;;;;;2.77;1.50;;;14.70;99.90;;;;;;5109483;28;21038;-79
2021/05/16 10:47:41;;;;;;;2.50;2.23;;;14.80;99.90;;;;;;5109570;27;20598;-77
2021/05/16 10:50:11;;;;;;;4.40;1.83;;;14.90;99.90;;;;;;5109038;28;20423;-79
2021/05/16 10:52:38;;;;;;;4.40;2.37;;;14.90;99.90;;;;;;5109343;28;20210;-77
2021/05/16 10:55:23;;;;;;;4.07;1.90;;;14.80;99.90;;;;;;5108169;28;20422;-80
2021/05/16 10:57:49;;;;;;;3.00;1.53;;;14.90;99.90;;;;;;5109122;28;20808;-78
2021/05/16 11:00:21;;;;;;;6.63;2.40;;;14.90;99.90;;;;;;5108837;28;20435;-78
2021/05/16 11:03:10;;;;;;;3.57;1.93;;;15.00;99.90;;;;;;5109271;28;20176;-78
2021/05/16 11:05:50;;;;;;;2.20;1.63;;;15.10;99.90;;;;;;5108590;28;20828;-79
2021/05/16 11:08:18;;;;;;;7.23;2.00;;;15.10;99.90;;;;;;5104123;28;20791;-77
2021/05/16 11:10:45;;;;;;;4.83;2.13;;;15.10;99.90;;;;;;5108456;28;20487;-77
2021/05/16 11:13:13;;;;;;;4.87;1.80;;;15.10;99.90;;;;;;5108973;28;20886;-77
2021/05/16 11:16:06;;;;;;;3.30;2.00;;;15.20;99.90;;;;;;5109119;28;20423;-77
2021/05/16 11:18:32;;;;;;;3.07;1.90;;;15.30;99.90;;;;;;5102582;28;20910;-79
2021/05/16 11:21:05;;;;;;;2.33;1.87;;;15.40;99.90;;;;;;5108404;28;20441;-78
2021/05/16 11:23:39;;;;;;;6.27;2.00;;;15.40;99.90;;;;;;5101039;28;20421;-77
2021/05/16 11:26:06;;;;;;;3.27;2.03;;;15.50;99.90;;;;;;5108794;28;20410;-77
2021/05/16 11:28:37;;;;;;;4.90;1.70;;;15.60;99.90;;;;;;5108847;28;20490;-78
2021/05/16 11:31:15;;;;;;;4.23;2.23;;;15.50;99.90;;;;;;5108552;28;20426;-76
2021/05/16 11:33:41;;;;;;;5.17;2.27;;;15.40;99.90;;;;;;5108632;28;20478;-77
2021/05/16 11:36:12;;;;;;;3.57;2.20;;;15.50;99.90;;;;;;5108112;28;20457;-78
2021/05/16 11:38:41;;;;;;;8.03;2.50;;;15.80;99.90;;;;;;5098835;28;20425;-78
2021/05/16 11:41:08;;;;;;;4.17;1.80;;;16.10;99.90;;;;;;5107704;28;20450;-77
2021/05/16 11:43:35;;;;;;;4.20;1.90;;;16.20;99.90;;;;;;5108607;28;20418;-78
2021/05/16 11:46:03;;;;;;;4.40;1.70;;;16.30;99.90;;;;;;5107971;28;20468;-77
2021/05/16 11:48:31;;;;;;;3.43;1.90;;;16.40;99.90;;;;;;5108078;28;20429;-78
2021/05/16 11:51:05;;;;;;;2.33;1.70;;;16.60;99.90;;;;;;5107789;28;20991;-78
2021/05/16 11:53:31;;;;;;;4.23;2.23;;;16.50;99.90;;;;;;5105826;28;20886;-75
2021/05/16 11:56:06;;;;;;;5.73;2.03;;;16.70;99.90;;;;;;5107495;28;20428;-78
2021/05/16 11:58:32;;;;;;;7.40;2.60;;;16.80;99.90;;;;;;5104760;28;20501;-76
2021/05/16 12:00:58;;;;;;;5.63;2.07;;;16.90;99.90;;;;;;5102441;28;20442;-77
2021/05/16 12:03:24;;;;;;;5.03;2.47;;;17.00;99.90;;;;;;5102827;28;20422;-76
2021/05/16 12:05:50;;;;;;;2.03;1.83;;;17.10;99.90;;;;;;5108119;28;20532;-76
2021/05/16 12:08:21;;;;;;;3.30;1.87;;;17.00;99.90;;;;;;5108082;28;20188;-76
2021/05/16 12:11:04;;;;;;;4.53;2.00;;;17.70;99.90;;;;;;5107898;28;20196;-75
2021/05/16 12:13:30;;;;;;;4.47;2.07;;;18.00;99.90;;;;;;5091827;28;20441;-79
2021/05/16 12:16:21;;;;;;;4.70;2.13;;;17.90;99.90;;;;;;5107865;28;20591;-78
2021/05/16 12:18:49;;;;;;;2.67;1.90;;;17.80;99.90;;;;;;5103371;28;20183;-77
2021/05/16 12:21:16;;;;;;;1.87;1.67;;;17.50;99.90;;;;;;5100251;28;20487;-77
2021/05/16 12:24:02;;;;;;;4.57;1.67;;;17.70;99.90;;;;;;5095458;28;20459;-77
2021/05/16 12:26:33;;;;;;;3.10;2.00;;;17.70;99.90;;;;;;5085891;28;20430;-76
2021/05/16 12:28:59;;;;;;;3.37;1.90;;;17.60;99.90;;;;;;5107762;28;20425;-76
2021/05/16 12:31:25;;;;;;;4.20;2.23;;;17.80;99.90;;;;;;5107543;28;20490;-77
2021/05/16 12:33:58;;;;;;;3.87;1.90;;;17.90;99.90;;;;;;5107484;28;21014;-75
2021/05/16 12:36:24;;;;;;;3.70;2.00;;;17.70;99.90;;;;;;5099046;28;20454;-76
2021/05/16 12:38:51;;;;;;;2.10;1.90;;;17.80;99.90;;;;;;5099954;28;20476;-76
2021/05/16 12:41:26;;;;;;;3.67;1.60;;;17.80;99.90;;;;;;5107086;28;20279;-79
2021/05/16 12:44:12;;;;;;;4.50;2.33;;;17.80;99.90;;;;;;5107393;28;20406;-75
2021/05/16 12:46:48;;;;;;;4.73;1.77;;;17.70;99.90;;;;;;5094122;28;20426;-75
2021/05/16 12:49:22;;;;;;;3.30;1.87;;;17.50;99.90;;;;;;5089007;28;20456;-76
2021/05/16 12:51:58;;;;;;;4.93;2.03;;;17.70;99.90;;;;;;5107483;28;20461;-76
2021/05/16 12:54:37;;;;;;;3.60;1.70;;;17.90;99.90;;;;;;5098955;28;20989;-75